Time,TemperatureF,DewpointF,PressureIn,WindDirection,WindDirectionDegrees,WindSpeedMPH,WindSpeedGustMPH,Humidity,HourlyPrecipIn,Conditions,Clouds,dailyrainin,SoftwareType,DateUTC
2013-05-23 00:01:00,63.9,63.9,28.39,SSW,209,2.0,2.0,100,0.01,CLR,CLR,0.00,WeatherDisplay:10.37,2013-05-23 04:01:00,
2013-05-23 00:03:00,63.9,63.9,28.39,SSW,209,2.3,0.0,100,0.01,CLR,CLR,0.00,WeatherDisplay:10.37,2013-05-23 04:03:00,
2013-05-23 00:09:00,63.8,63.8,28.39,SSW,209,3.5,3.5,100,0.01,CLR,CLR,0.01,WeatherDisplay:10.37,2013-05-23 04:09:00,
2013-05-23 00:14:00,63.7,63.7,28.39,SSW,209,2.3,2.3,100,0.01,RA,RA,0.01,WeatherDisplay:10.37,2013-05-23 04:14:00,
2013-05-23 00:19:00,63.7,63.7,28.39,SSW,209,3.5,3.5,100,0.01,,,0.01,WeatherDisplay:10.37,2013-05-23 04:19:00,
2013-05-23 00:24:00,63.6,63.6,28.40,SSW,200,3.5,3.5,100,0.01,CLR,CLR,0.01,WeatherDisplay:10.37,2013-05-23 04:24:00,
2013-05-23 00:29:00,63.5,63.5,28.40,SSW,196,2.3,2.3,100,0.01,CLR,CLR,0.01,WeatherDisplay:10.37,2013-05-23 04:29:00,
2013-05-23 00:35:00,63.3,63.3,28.40,SSW,196,0.0,0.0,100,0.01,CLR,CLR,0.01,WeatherDisplay:10.37,2013-05-23 04:35:00,
2013-05-23 00:40:00,63.2,63.2,28.40,SSW,196,0.0,0.0,100,0.01,CLR,CLR,0.01,WeatherDisplay:10.37,2013-05-23 04:40:00,
2013-05-23 00:45:00,63.1,63.1,28.40,SSW,196,3.5,3.5,100,0.01,CLR,CLR,0.01,WeatherDisplay:10.37,2013-05-23 04:45:00,
2013-05-23 00:50:00,63.0,63.0,28.40,SSW,196,0.0,0.0,100,0.01,CLR,CLR,0.01,WeatherDisplay:10.37,2013-05-23 04:50:00,
2013-05-23 00:55:00,62.9,62.9,28.40,SSW,196,1.0,1.0,100,0.01,CLR,CLR,0.01,WeatherDisplay:10.37,2013-05-23 04:55:00,
2013-05-23 01:00:00,62.8,62.8,28.40,SSW,194,2.3,2.3,100,0.01,CLR,CLR,0.01,WeatherDisplay:10.37,2013-05-23 05:00:00,
2013-05-23 01:05:00,62.8,62.8,28.40,SSW,194,2.0,2.0,100,0.01,CLR,CLR,0.01,WeatherDisplay:10.37,2013-05-23 05:05:00,
2013-05-23 01:10:00,62.8,62.8,28.40,South,185,2.3,2.3,100,0.00,CLR,CLR,0.01,WeatherDisplay:10.37,2013-05-23 05:10:00,
2013-05-23 01:16:00,62.8,62.8,28.40,South,185,0.0,0.0,100,0.00,CLR,CLR,0.01,WeatherDisplay:10.37,2013-05-23 05:16:00,
2013-05-23 01:21:00,62.8,62.8,28.39,South,185,0.0,0.0,100,0.00,CLR,CLR,0.01,WeatherDisplay:10.37,2013-05-23 05:21:00,
2013-05-23 01:26:00,62.9,62.9,28.40,South,186,3.5,3.5,100,0.00,CLR,CLR,0.01,WeatherDisplay:10.37,2013-05-23 05:26:00,
2013-05-23 01:31:00,62.9,62.9,28.40,South,186,3.5,3.5,100,0.00,CLR,CLR,0.01,WeatherDisplay:10.37,2013-05-23 05:31:00,
2013-05-23 01:36:00,63.0,63.0,28.40,SSE,164,5.8,5.8,100,0.00,CLR,CLR,0.01,WeatherDisplay:10.37,2013-05-23 05:36:00,
2013-05-23 01:41:00,63.0,63.0,28.40,South,179,8.1,8.1,100,0.00,CLR,CLR,0.01,WeatherDisplay:10.37,2013-05-23 05:41:00,
2013-05-23 01:47:00,63.1,63.1,28.40,SSE,168,4.6,4.6,100,0.00,CLR,CLR,0.01,WeatherDisplay:10.37,2013-05-23 05:47:00,
2013-05-23 01:52:00,63.1,63.1,28.40,South,181,5.0,5.0,100,0.00,CLR,CLR,0.01,WeatherDisplay:10.37,2013-05-23 05:52:00,
2013-05-23 01:57:00,63.1,63.1,28.39,South,172,4.0,4.0,100,0.00,CLR,CLR,0.01,WeatherDisplay:10.37,2013-05-23 05:57:00,
2013-05-23 02:02:00,63.1,63.1,28.39,South,184,4.6,4.6,100,0.00,CLR,CLR,0.01,WeatherDisplay:10.37,2013-05-23 06:02:00,
2013-05-23 02:07:00,63.1,63.1,28.39,South,184,3.5,3.5,100,0.00,CLR,CLR,0.01,WeatherDisplay:10.37,2013-05-23 06:07:00,
2013-05-23 02:13:00,63.1,63.1,28.38,South,184,1.2,1.2,100,0.00,CLR,CLR,0.01,WeatherDisplay:10.37,2013-05-23 06:13:00,
2013-05-23 02:18:00,63.0,63.0,28.38,South,184,2.3,2.3,100,0.00,CLR,CLR,0.01,WeatherDisplay:10.37,2013-05-23 06:18:00,
2013-05-23 02:23:00,63.0,63.0,28.39,South,188,2.3,2.3,100,0.00,CLR,CLR,0.01,WeatherDisplay:10.37,2013-05-23 06:23:00,
2013-05-23 02:28:00,63.1,63.1,28.38,South,186,3.0,3.0,100,0.00,CLR,CLR,0.01,WeatherDisplay:10.37,2013-05-23 06:28:00,
2013-05-23 02:33:00,63.1,63.1,28.38,SSW,209,3.5,3.5,100,0.00,CLR,CLR,0.01,WeatherDisplay:10.37,2013-05-23 06:33:00,
2013-05-23 02:38:00,63.0,63.0,28.38,South,179,3.5,3.5,100,0.00,CLR,CLR,0.01,WeatherDisplay:10.37,2013-05-23 06:38:00,
2013-05-23 02:43:00,63.0,63.0,28.38,South,171,5.8,5.8,100,0.00,CLR,CLR,0.01,WeatherDisplay:10.37,2013-05-23 06:43:00,
2013-05-23 02:49:00,62.9,62.9,28.38,SSE,164,0.0,0.0,100,0.00,CLR,CLR,0.01,WeatherDisplay:10.37,2013-05-23 06:49:00,
2013-05-23 02:54:00,62.9,62.9,28.38,SSE,164,2.3,2.3,100,0.00,CLR,CLR,0.01,WeatherDisplay:10.37,2013-05-23 06:54:00,
2013-05-23 02:59:00,62.8,62.8,28.38,SSE,164,0.0,0.0,100,0.00,CLR,CLR,0.01,WeatherDisplay:10.37,2013-05-23 06:59:00,
2013-05-23 03:04:00,62.7,62.7,28.38,SSE,164,0.0,0.0,100,0.00,CLR,CLR,0.01,WeatherDisplay:10.37,2013-05-23 07:04:00,
2013-05-23 03:10:00,62.7,62.7,28.38,SSE,164,0.0,0.0,100,0.00,CLR,CLR,0.01,WeatherDisplay:10.37,2013-05-23 07:10:00,
2013-05-23 03:15:00,62.7,62.7,28.38,SSE,164,2.3,2.3,100,0.00,CLR,CLR,0.01,WeatherDisplay:10.37,2013-05-23 07:15:00,
2013-05-23 03:20:00,62.6,62.6,28.38,SSE,164,2.3,2.3,100,0.00,CLR,CLR,0.01,WeatherDisplay:10.37,2013-05-23 07:20:00,
2013-05-23 03:25:00,62.6,62.6,28.38,SSE,164,0.0,0.0,100,0.00,CLR,CLR,0.01,WeatherDisplay:10.37,2013-05-23 07:25:00,
2013-05-23 03:30:00,62.6,62.6,28.38,SSE,163,4.6,4.6,100,0.00,CLR,CLR,0.01,WeatherDisplay:10.37,2013-05-23 07:30:00,
2013-05-23 03:35:00,62.6,62.6,28.38,South,182,4.6,4.6,100,0.00,CLR,CLR,0.01,WeatherDisplay:10.37,2013-05-23 07:35:00,
2013-05-23 03:41:00,62.7,62.7,28.39,SSW,197,11.5,11.5,100,0.00,CLR,CLR,0.01,WeatherDisplay:10.37,2013-05-23 07:41:00,
2013-05-23 03:46:00,62.7,62.7,28.39,South,177,10.4,10.4,100,0.00,CLR,CLR,0.01,WeatherDisplay:10.37,2013-05-23 07:46:00,
2013-05-23 03:57:00,62.5,62.5,28.39,SSE,167,5.8,5.8,100,0.00,CLR,CLR,0.01,WeatherDisplay:10.37,2013-05-23 07:57:00,
2013-05-23 04:02:00,62.4,62.4,28.39,South,176,3.5,3.5,100,0.00,CLR,CLR,0.01,WeatherDisplay:10.37,2013-05-23 08:02:00,
2013-05-23 04:07:00,62.4,62.4,28.38,SSW,193,3.0,3.0,100,0.00,CLR,CLR,0.01,WeatherDisplay:10.37,2013-05-23 08:07:00,
2013-05-23 04:12:00,62.3,62.3,28.39,South,174,3.5,3.5,100,0.00,CLR,CLR,0.01,WeatherDisplay:10.37,2013-05-23 08:12:00,
2013-05-23 04:17:00,62.3,62.3,28.38,South,174,1.2,1.2,100,0.00,CLR,CLR,0.01,WeatherDisplay:10.37,2013-05-23 08:17:00,
2013-05-23 04:23:00,62.2,62.2,28.38,South,174,2.3,2.3,100,0.00,CLR,CLR,0.01,WeatherDisplay:10.37,2013-05-23 08:23:00,
2013-05-23 04:28:00,62.2,62.2,28.38,South,174,1.2,0.0,100,0.00,CLR,CLR,0.01,WeatherDisplay:10.37,2013-05-23 08:28:00,
2013-05-23 04:33:00,62.1,62.1,28.38,South,174,0.0,0.0,100,0.00,CLR,CLR,0.01,WeatherDisplay:10.37,2013-05-23 08:33:00,
2013-05-23 04:38:00,62.1,62.1,28.37,South,174,0.0,0.0,100,0.00,CLR,CLR,0.01,WeatherDisplay:10.37,2013-05-23 08:38:00,
2013-05-23 04:43:00,62.0,62.0,28.38,South,174,0.0,0.0,100,0.00,CLR,CLR,0.01,WeatherDisplay:10.37,2013-05-23 08:43:00,
2013-05-23 04:49:00,62.0,62.0,28.38,South,174,0.0,0.0,100,0.00,CLR,CLR,0.01,WeatherDisplay:10.37,2013-05-23 08:49:00,
2013-05-23 04:54:00,62.0,62.0,28.38,South,174,0.0,0.0,100,0.00,CLR,CLR,0.01,WeatherDisplay:10.37,2013-05-23 08:54:00,
2013-05-23 04:59:00,62.0,62.0,28.37,South,174,0.0,0.0,100,0.00,CLR,CLR,0.01,WeatherDisplay:10.37,2013-05-23 08:59:00,
2013-05-23 05:04:00,62.0,62.0,28.37,South,174,0.0,0.0,100,0.00,CLR,CLR,0.01,WeatherDisplay:10.37,2013-05-23 09:04:00,
2013-05-23 05:10:00,62.0,62.0,28.37,South,174,0.0,0.0,100,0.00,CLR,CLR,0.01,WeatherDisplay:10.37,2013-05-23 09:10:00,
2013-05-23 05:15:00,61.9,61.9,28.38,South,174,0.0,0.0,100,0.00,CLR,CLR,0.01,WeatherDisplay:10.37,2013-05-23 09:15:00,
2013-05-23 05:20:00,62.0,62.0,28.38,SSW,194,3.5,3.5,100,0.00,CLR,CLR,0.01,WeatherDisplay:10.37,2013-05-23 09:20:00,
2013-05-23 05:25:00,62.0,62.0,28.38,SSW,193,3.5,3.5,100,0.00,CLR,CLR,0.01,WeatherDisplay:10.37,2013-05-23 09:25:00,
2013-05-23 05:30:00,61.9,61.9,28.38,South,189,3.5,3.5,100,0.01,RA,RA,0.02,WeatherDisplay:10.37,2013-05-23 09:30:00,
2013-05-23 05:35:00,61.9,61.9,28.39,SSE,148,3.5,3.5,100,0.01,RA,RA,0.02,WeatherDisplay:10.37,2013-05-23 09:35:00,
2013-05-23 05:41:00,61.9,61.9,28.39,SSE,152,2.3,2.3,100,0.01,,,0.02,WeatherDisplay:10.37,2013-05-23 09:41:00,
2013-05-23 05:46:00,61.9,61.9,28.38,South,186,3.5,3.5,100,0.01,CLR,CLR,0.02,WeatherDisplay:10.37,2013-05-23 09:46:00,
2013-05-23 05:51:00,61.9,61.9,28.40,South,189,2.0,2.0,100,0.01,CLR,CLR,0.02,WeatherDisplay:10.37,2013-05-23 09:51:00,
2013-05-23 05:56:00,62.0,62.0,28.40,South,180,3.0,3.0,100,0.01,CLR,CLR,0.02,WeatherDisplay:10.37,2013-05-23 09:56:00,
2013-05-23 06:02:00,62.0,62.0,28.40,SSW,202,1.2,0.0,100,0.01,CLR,CLR,0.02,WeatherDisplay:10.37,2013-05-23 10:02:00,
2013-05-23 06:07:00,62.0,62.0,28.40,SSW,202,3.5,3.5,100,0.01,CLR,CLR,0.02,WeatherDisplay:10.37,2013-05-23 10:07:00,
2013-05-23 06:12:00,62.0,62.0,28.40,SSW,202,3.5,3.5,100,0.01,CLR,CLR,0.02,WeatherDisplay:10.37,2013-05-23 10:12:00,
2013-05-23 06:17:00,62.0,62.0,28.50,South,179,4.6,4.6,100,0.01,CLR,CLR,0.02,WeatherDisplay:10.37,2013-05-23 10:17:00,
2013-05-23 06:22:00,62.2,62.2,28.56,South,179,6.9,6.9,100,0.01,CLR,CLR,0.02,WeatherDisplay:10.37,2013-05-23 10:22:00,
2013-05-23 06:28:00,62.3,62.3,28.57,SSE,164,4.6,4.6,100,0.01,CLR,CLR,0.02,WeatherDisplay:10.37,2013-05-23 10:28:00,
2013-05-23 06:33:00,62.3,62.3,28.54,South,182,3.5,3.5,100,0.00,CLR,CLR,0.02,WeatherDisplay:10.37,2013-05-23 10:33:00,
2013-05-23 06:38:00,62.3,62.3,28.49,South,181,3.5,3.5,100,0.00,CLR,CLR,0.02,WeatherDisplay:10.37,2013-05-23 10:38:00,
2013-05-23 06:43:00,62.3,62.3,28.48,South,187,3.5,3.5,100,0.00,CLR,CLR,0.02,WeatherDisplay:10.37,2013-05-23 10:43:00,
2013-05-23 06:49:00,62.3,62.3,28.56,South,176,3.5,3.5,100,0.00,CLR,CLR,0.02,WeatherDisplay:10.37,2013-05-23 10:49:00,
2013-05-23 06:54:00,62.4,62.4,28.56,South,185,3.5,3.5,100,0.00,CLR,CLR,0.02,WeatherDisplay:10.37,2013-05-23 10:54:00,
2013-05-23 06:59:00,62.4,62.4,28.45,SSW,195,5.8,5.8,100,0.00,CLR,CLR,0.02,WeatherDisplay:10.37,2013-05-23 10:59:00,
2013-05-23 07:04:00,62.4,62.4,28.45,SSW,208,6.9,6.9,100,0.00,CLR,CLR,0.02,WeatherDisplay:10.37,2013-05-23 11:04:00,
2013-05-23 07:09:00,62.6,62.6,28.44,South,183,5.0,5.0,100,0.00,CLR,CLR,0.02,WeatherDisplay:10.37,2013-05-23 11:09:00,
2013-05-23 07:15:00,62.8,62.8,28.45,SSW,202,5.0,5.0,100,0.00,CLR,CLR,0.02,WeatherDisplay:10.37,2013-05-23 11:15:00,
2013-05-23 07:20:00,62.8,62.8,28.43,SSW,202,3.0,3.0,100,0.00,CLR,CLR,0.02,WeatherDisplay:10.37,2013-05-23 11:20:00,
2013-05-23 07:25:00,62.9,62.9,28.44,South,184,3.5,3.5,100,0.00,CLR,CLR,0.02,WeatherDisplay:10.37,2013-05-23 11:25:00,
2013-05-23 07:30:00,62.9,62.9,28.46,South,183,1.2,1.2,100,0.00,CLR,CLR,0.02,WeatherDisplay:10.37,2013-05-23 11:30:00,
2013-05-23 07:35:00,63.1,63.1,28.44,South,183,2.3,2.3,100,0.00,CLR,CLR,0.02,WeatherDisplay:10.37,2013-05-23 11:35:00,
2013-05-23 07:40:00,63.3,63.3,28.44,South,183,3.5,3.5,100,0.00,CLR,CLR,0.02,WeatherDisplay:10.37,2013-05-23 11:40:00,
2013-05-23 07:46:00,63.4,63.4,28.45,South,181,3.5,3.5,100,0.00,CLR,CLR,0.02,WeatherDisplay:10.37,2013-05-23 11:46:00,
2013-05-23 07:51:00,63.7,63.7,28.45,South,180,3.5,3.5,100,0.00,CLR,CLR,0.02,WeatherDisplay:10.37,2013-05-23 11:51:00,
2013-05-23 07:56:00,64.0,64.0,28.44,SSW,194,3.5,3.5,100,0.00,CLR,CLR,0.02,WeatherDisplay:10.37,2013-05-23 11:56:00,
2013-05-23 08:01:00,64.2,64.2,28.46,SSE,148,4.0,4.0,100,0.00,CLR,CLR,0.02,WeatherDisplay:10.37,2013-05-23 12:01:00,
2013-05-23 08:06:00,64.2,64.2,28.46,South,180,4.6,4.6,100,0.00,CLR,CLR,0.02,WeatherDisplay:10.37,2013-05-23 12:06:00,
2013-05-23 08:12:00,64.3,64.3,28.46,SSW,193,4.6,4.6,100,0.00,CLR,CLR,0.02,WeatherDisplay:10.37,2013-05-23 12:12:00,
2013-05-23 08:17:00,64.4,64.4,28.45,South,183,4.6,4.6,100,0.00,CLR,CLR,0.02,WeatherDisplay:10.37,2013-05-23 12:17:00,
2013-05-23 08:22:00,64.5,64.5,28.44,South,186,2.3,2.3,100,0.00,CLR,CLR,0.02,WeatherDisplay:10.37,2013-05-23 12:22:00,
2013-05-23 08:27:00,64.7,64.7,28.44,SW,223,4.6,4.6,100,0.00,CLR,CLR,0.02,WeatherDisplay:10.37,2013-05-23 12:27:00,
2013-05-23 08:32:00,64.8,64.8,28.46,SW,231,3.5,3.5,100,0.00,CLR,CLR,0.02,WeatherDisplay:10.37,2013-05-23 12:32:00,
2013-05-23 08:37:00,64.9,64.9,28.44,SW,224,3.5,3.5,100,0.00,CLR,CLR,0.02,WeatherDisplay:10.37,2013-05-23 12:37:00,
2013-05-23 08:43:00,65.0,65.0,28.44,SSW,205,2.3,2.3,100,0.00,CLR,CLR,0.02,WeatherDisplay:10.37,2013-05-23 12:43:00,
2013-05-23 08:48:00,65.2,65.2,28.44,South,191,3.5,3.5,100,0.00,CLR,CLR,0.02,WeatherDisplay:10.37,2013-05-23 12:48:00,
2013-05-23 08:53:00,65.6,65.6,28.46,South,191,1.2,0.0,100,0.00,CLR,CLR,0.02,WeatherDisplay:10.37,2013-05-23 12:53:00,
2013-05-23 08:58:00,65.7,65.7,28.45,South,190,2.3,2.3,100,0.00,CLR,CLR,0.02,WeatherDisplay:10.37,2013-05-23 12:58:00,
2013-05-23 09:03:00,65.9,65.9,28.45,South,191,2.3,2.3,100,0.00,CLR,CLR,0.02,WeatherDisplay:10.37,2013-05-23 13:03:00,
2013-05-23 09:09:00,66.4,66.4,28.44,South,190,3.5,3.5,100,0.00,CLR,CLR,0.02,WeatherDisplay:10.37,2013-05-23 13:09:00,
2013-05-23 09:14:00,66.5,66.5,28.45,SE,142,4.6,4.6,100,0.00,CLR,CLR,0.02,WeatherDisplay:10.37,2013-05-23 13:14:00,
2013-05-23 09:19:00,66.5,66.5,28.49,SE,142,0.0,0.0,100,0.00,CLR,CLR,0.02,WeatherDisplay:10.37,2013-05-23 13:19:00,
2013-05-23 09:24:00,66.3,66.3,28.49,SSE,160,1.2,1.2,100,0.00,CLR,CLR,0.02,WeatherDisplay:10.37,2013-05-23 13:24:00,
2013-05-23 09:29:00,66.5,66.5,28.47,SSE,160,3.0,3.0,100,0.00,CLR,CLR,0.02,WeatherDisplay:10.37,2013-05-23 13:29:00,
2013-05-23 09:35:00,66.5,66.5,28.47,SSE,160,0.0,0.0,100,0.00,CLR,CLR,0.02,WeatherDisplay:10.37,2013-05-23 13:35:00,
2013-05-23 09:40:00,66.4,66.4,28.48,SSE,160,1.2,1.2,100,0.00,CLR,CLR,0.02,WeatherDisplay:10.37,2013-05-23 13:40:00,
2013-05-23 09:45:00,66.5,66.5,28.49,SSE,166,2.0,2.0,100,0.00,CLR,CLR,0.02,WeatherDisplay:10.37,2013-05-23 13:45:00,
2013-05-23 09:50:00,66.6,66.6,28.49,SSE,166,2.3,2.3,100,0.00,CLR,CLR,0.02,WeatherDisplay:10.37,2013-05-23 13:50:00,
2013-05-23 09:55:00,66.6,66.6,28.48,SSE,166,2.3,2.3,100,0.00,CLR,CLR,0.02,WeatherDisplay:10.37,2013-05-23 13:55:00,
2013-05-23 10:01:00,66.7,66.7,28.50,SSE,166,3.5,3.5,100,0.00,CLR,CLR,0.02,WeatherDisplay:10.37,2013-05-23 14:01:00,
2013-05-23 10:06:00,66.8,66.8,28.53,SSE,149,3.5,3.5,100,0.00,CLR,CLR,0.02,WeatherDisplay:10.37,2013-05-23 14:06:00,
2013-05-23 10:11:00,67.1,67.1,28.51,SSE,149,2.3,2.3,100,0.00,CLR,CLR,0.02,WeatherDisplay:10.37,2013-05-23 14:11:00,
2013-05-23 10:16:00,67.1,66.8,28.51,SSE,149,1.2,0.0,99,0.00,CLR,CLR,0.02,WeatherDisplay:10.37,2013-05-23 14:16:00,
2013-05-23 10:21:00,67.0,66.7,28.51,North,0,5.8,5.8,99,0.00,CLR,CLR,0.02,WeatherDisplay:10.37,2013-05-23 14:21:00,
2013-05-23 10:26:00,67.0,66.7,28.51,North,0,1.2,1.2,99,0.00,CLR,CLR,0.02,WeatherDisplay:10.37,2013-05-23 14:26:00,
2013-05-23 10:31:00,67.4,67.1,28.52,North,0,3.5,3.5,99,0.00,CLR,CLR,0.02,WeatherDisplay:10.37,2013-05-23 14:31:00,
2013-05-23 10:36:00,67.5,66.9,28.52,SSE,163,3.5,3.5,98,0.00,CLR,CLR,0.02,WeatherDisplay:10.37,2013-05-23 14:36:00,
2013-05-23 10:42:00,67.4,67.1,28.54,South,174,5.8,5.8,99,0.00,CLR,CLR,0.02,WeatherDisplay:10.37,2013-05-23 14:42:00,
2013-05-23 10:47:00,67.4,66.8,28.52,South,173,4.6,4.6,98,0.00,CLR,CLR,0.02,WeatherDisplay:10.37,2013-05-23 14:47:00,
2013-05-23 10:52:00,67.6,67.0,28.52,SSW,192,3.5,3.5,98,0.00,CLR,CLR,0.02,WeatherDisplay:10.37,2013-05-23 14:52:00,
2013-05-23 10:57:00,67.8,67.2,28.49,SSE,166,3.5,3.5,98,0.00,CLR,CLR,0.02,WeatherDisplay:10.37,2013-05-23 14:57:00,
2013-05-23 11:02:00,68.0,67.7,28.52,SSE,161,5.0,5.0,99,0.00,CLR,CLR,0.02,WeatherDisplay:10.37,2013-05-23 15:02:00,
2013-05-23 11:07:00,68.0,67.1,28.52,SSE,167,4.6,4.6,97,0.00,CLR,CLR,0.02,WeatherDisplay:10.37,2013-05-23 15:07:00,
2013-05-23 11:13:00,68.4,67.8,28.51,South,182,5.8,5.8,98,0.00,CLR,CLR,0.02,WeatherDisplay:10.37,2013-05-23 15:13:00,
2013-05-23 11:18:00,68.9,67.4,28.48,South,191,4.6,4.8,95,0.00,CLR,CLR,0.02,WeatherDisplay:10.37,2013-05-23 15:18:00,
2013-05-23 11:23:00,69.5,68.9,28.45,South,180,5.0,5.0,98,0.00,CLR,CLR,0.02,WeatherDisplay:10.37,2013-05-23 15:23:00,
2013-05-23 11:28:00,70.5,70.2,28.45,South,175,5.8,5.8,99,0.00,CLR,CLR,0.02,WeatherDisplay:10.37,2013-05-23 15:28:00,
2013-05-23 11:33:00,71.6,70.7,28.46,South,177,7.0,7.0,97,0.00,CLR,CLR,0.02,WeatherDisplay:10.37,2013-05-23 15:33:00,
2013-05-23 11:38:00,72.6,69.8,28.47,ESE,105,5.8,5.8,91,0.00,CLR,CLR,0.02,WeatherDisplay:10.37,2013-05-23 15:38:00,
2013-05-23 11:43:00,73.5,70.7,28.46,SSE,157,5.8,5.8,91,0.00,CLR,CLR,0.02,WeatherDisplay:10.37,2013-05-23 15:43:00,
2013-05-23 11:48:00,73.8,71.3,28.47,SE,145,9.2,9.2,92,0.00,CLR,CLR,0.02,WeatherDisplay:10.37,2013-05-23 15:48:00,
2013-05-23 11:54:00,74.2,69.4,28.46,South,170,5.8,5.8,85,0.00,CLR,CLR,0.02,WeatherDisplay:10.37,2013-05-23 15:54:00,
2013-05-23 11:59:00,74.3,70.2,28.44,SSE,166,10.4,10.4,87,0.00,CLR,CLR,0.02,WeatherDisplay:10.37,2013-05-23 15:59:00,
2013-05-23 12:04:00,73.9,69.1,28.48,South,173,6.9,6.9,85,0.00,CLR,CLR,0.02,WeatherDisplay:10.37,2013-05-23 16:04:00,
2013-05-23 12:09:00,73.4,68.6,28.46,SSE,160,5.8,5.8,85,0.00,CLR,CLR,0.02,WeatherDisplay:10.37,2013-05-23 16:09:00,
2013-05-23 12:14:00,72.8,68.7,28.47,South,176,5.8,5.8,87,0.00,CLR,CLR,0.02,WeatherDisplay:10.37,2013-05-23 16:14:00,
2013-05-23 12:19:00,72.4,68.6,28.47,SSE,155,5.8,5.8,88,0.00,CLR,CLR,0.02,WeatherDisplay:10.37,2013-05-23 16:19:00,
2013-05-23 12:24:00,72.4,69.0,28.48,ESE,106,4.6,4.6,89,0.00,CLR,CLR,0.02,WeatherDisplay:10.37,2013-05-23 16:24:00,
2013-05-23 12:30:00,72.5,69.4,28.46,SSW,195,5.8,5.8,90,0.00,CLR,CLR,0.02,WeatherDisplay:10.37,2013-05-23 16:30:00,
2013-05-23 12:35:00,72.6,69.2,28.47,SSE,168,8.1,8.1,89,0.00,CLR,CLR,0.02,WeatherDisplay:10.37,2013-05-23 16:35:00,
2013-05-23 12:40:00,72.9,69.5,28.47,South,173,3.5,3.5,89,0.00,CLR,CLR,0.02,WeatherDisplay:10.37,2013-05-23 16:40:00,
2013-05-23 12:45:00,73.3,69.5,28.46,South,179,6.9,6.9,88,0.00,CLR,CLR,0.02,WeatherDisplay:10.37,2013-05-23 16:45:00,
2013-05-23 12:50:00,73.4,70.0,28.46,South,174,4.0,4.0,89,0.00,CLR,CLR,0.02,WeatherDisplay:10.37,2013-05-23 16:50:00,
2013-05-23 12:56:00,73.3,69.5,28.47,SSW,210,3.5,3.5,88,0.00,CLR,CLR,0.02,WeatherDisplay:10.37,2013-05-23 16:56:00,
2013-05-23 13:01:00,73.4,70.0,28.47,South,171,6.9,6.9,89,0.00,CLR,CLR,0.02,WeatherDisplay:10.37,2013-05-23 17:01:00,
2013-05-23 13:06:00,73.6,69.8,28.47,South,185,5.8,5.8,88,0.00,CLR,CLR,0.02,WeatherDisplay:10.37,2013-05-23 17:06:00,
2013-05-23 13:11:00,73.5,69.7,28.46,SSW,193,5.8,5.8,88,0.00,CLR,CLR,0.02,WeatherDisplay:10.37,2013-05-23 17:11:00,
2013-05-23 13:16:00,73.3,69.5,28.46,SSW,193,5.8,5.8,88,0.00,CLR,CLR,0.02,WeatherDisplay:10.37,2013-05-23 17:16:00,
2013-05-23 13:21:00,73.3,69.5,28.47,SSW,194,5.0,5.0,88,0.00,CLR,CLR,0.02,WeatherDisplay:10.37,2013-05-23 17:21:00,
2013-05-23 13:26:00,73.1,69.0,28.47,SW,214,7.0,7.0,87,0.00,CLR,CLR,0.02,WeatherDisplay:10.37,2013-05-23 17:26:00,
2013-05-23 13:32:00,73.2,69.4,28.47,South,189,4.6,4.6,88,0.00,CLR,CLR,0.02,WeatherDisplay:10.37,2013-05-23 17:32:00,
2013-05-23 13:37:00,73.4,69.6,28.47,South,181,8.0,8.0,88,0.00,CLR,CLR,0.02,WeatherDisplay:10.37,2013-05-23 17:37:00,
2013-05-23 13:42:00,73.5,69.7,28.46,SSW,192,4.6,4.6,88,0.00,CLR,CLR,0.02,WeatherDisplay:10.37,2013-05-23 17:42:00,
2013-05-23 13:47:00,73.5,69.7,28.45,SSW,194,6.9,6.9,88,0.00,CLR,CLR,0.02,WeatherDisplay:10.37,2013-05-23 17:47:00,
2013-05-23 13:52:00,73.4,69.6,28.47,SSW,211,6.0,6.0,88,0.00,CLR,CLR,0.02,WeatherDisplay:10.37,2013-05-23 17:52:00,
2013-05-23 13:57:00,73.6,69.8,28.48,SSW,202,4.6,4.6,88,0.00,CLR,CLR,0.02,WeatherDisplay:10.37,2013-05-23 17:57:00,
2013-05-23 14:03:00,73.8,70.0,28.46,South,188,5.8,5.8,88,0.00,CLR,CLR,0.02,WeatherDisplay:10.37,2013-05-23 18:03:00,
2013-05-23 14:08:00,73.5,69.7,28.45,South,182,5.8,5.8,88,0.00,CLR,CLR,0.02,WeatherDisplay:10.37,2013-05-23 18:08:00,
2013-05-23 14:13:00,73.2,69.8,28.43,South,182,4.6,4.6,89,0.00,CLR,CLR,0.02,WeatherDisplay:10.37,2013-05-23 18:13:00,
2013-05-23 14:18:00,73.0,69.6,28.44,South,181,3.5,3.5,89,0.00,CLR,CLR,0.02,WeatherDisplay:10.37,2013-05-23 18:18:00,
2013-05-23 14:23:00,73.1,70.0,28.45,South,181,3.5,3.5,90,0.00,CLR,CLR,0.02,WeatherDisplay:10.37,2013-05-23 18:23:00,
2013-05-23 14:28:00,73.1,69.7,28.45,South,188,2.3,2.3,89,0.00,CLR,CLR,0.02,WeatherDisplay:10.37,2013-05-23 18:28:00,
2013-05-23 14:33:00,73.2,70.1,28.46,South,185,3.5,0.0,90,0.00,CLR,CLR,0.02,WeatherDisplay:10.37,2013-05-23 18:33:00,
2013-05-23 14:39:00,73.3,69.9,28.44,South,186,5.8,5.8,89,0.00,CLR,CLR,0.02,WeatherDisplay:10.37,2013-05-23 18:39:00,
2013-05-23 14:44:00,73.3,69.5,28.43,South,191,2.3,2.3,88,0.00,CLR,CLR,0.02,WeatherDisplay:10.37,2013-05-23 18:44:00,
2013-05-23 14:49:00,73.5,70.1,28.44,South,191,3.5,3.5,89,0.00,CLR,CLR,0.02,WeatherDisplay:10.37,2013-05-23 18:49:00,
2013-05-23 14:54:00,74.1,71.0,28.43,SSW,205,2.3,2.3,90,0.00,CLR,CLR,0.02,WeatherDisplay:10.37,2013-05-23 18:54:00,
2013-05-23 14:59:00,74.6,71.1,28.38,SSW,201,3.5,3.5,89,0.00,CLR,CLR,0.02,WeatherDisplay:10.37,2013-05-23 18:59:00,
2013-05-23 15:05:00,74.8,71.0,28.37,SSW,200,5.8,5.8,88,0.00,CLR,CLR,0.02,WeatherDisplay:10.37,2013-05-23 19:05:00,
2013-05-23 15:10:00,75.0,72.2,28.37,SSW,196,5.8,5.8,91,0.00,CLR,CLR,0.02,WeatherDisplay:10.37,2013-05-23 19:10:00,
2013-05-23 15:15:00,75.4,71.3,28.36,SSE,153,6.9,6.9,87,0.00,CLR,CLR,0.02,WeatherDisplay:10.37,2013-05-23 19:15:00,
2013-05-23 15:20:00,75.7,71.9,28.38,SSE,150,2.3,2.3,88,0.00,CLR,CLR,0.02,WeatherDisplay:10.37,2013-05-23 19:20:00,
2013-05-23 15:25:00,75.6,71.5,28.38,SSW,198,3.5,3.5,87,0.00,CLR,CLR,0.02,WeatherDisplay:10.37,2013-05-23 19:25:00,
2013-05-23 15:31:00,75.4,71.6,28.36,South,188,8.1,8.1,88,0.00,CLR,CLR,0.02,WeatherDisplay:10.37,2013-05-23 19:31:00,
2013-05-23 15:36:00,75.6,72.5,28.33,South,188,1.2,1.2,90,0.00,CLR,CLR,0.02,WeatherDisplay:10.37,2013-05-23 19:36:00,
2013-05-23 15:41:00,75.9,72.4,28.38,ESE,120,1.2,1.2,89,0.00,CLR,CLR,0.02,WeatherDisplay:10.37,2013-05-23 19:41:00,
2013-05-23 15:46:00,75.9,72.1,28.35,South,171,4.6,4.6,88,0.00,CLR,CLR,0.02,WeatherDisplay:10.37,2013-05-23 19:46:00,
2013-05-23 15:51:00,75.9,72.8,28.34,ESE,117,2.0,2.0,90,0.00,CLR,CLR,0.02,WeatherDisplay:10.37,2013-05-23 19:51:00,
2013-05-23 15:57:00,76.0,72.9,28.34,SSW,196,3.0,3.3,90,0.00,CLR,CLR,0.02,WeatherDisplay:10.37,2013-05-23 19:57:00,
2013-05-23 16:02:00,76.3,73.8,28.35,NNE,20,2.3,2.3,92,0.00,CLR,CLR,0.02,WeatherDisplay:10.37,2013-05-23 20:02:00,
2013-05-23 16:07:00,76.6,72.8,28.32,South,178,4.6,4.6,88,0.00,CLR,CLR,0.02,WeatherDisplay:10.37,2013-05-23 20:07:00,
2013-05-23 16:12:00,76.6,72.8,28.34,South,178,2.3,2.3,88,0.00,CLR,CLR,0.02,WeatherDisplay:10.37,2013-05-23 20:12:00,
2013-05-23 16:18:00,76.2,72.0,28.33,SW,214,3.5,3.5,87,0.00,CLR,CLR,0.02,WeatherDisplay:10.37,2013-05-23 20:18:00,
2013-05-23 16:23:00,75.7,71.6,28.33,SW,214,2.3,2.3,87,0.00,CLR,CLR,0.02,WeatherDisplay:10.37,2013-05-23 20:23:00,
2013-05-23 16:28:00,75.4,71.6,28.33,SSW,208,3.5,3.5,88,0.00,CLR,CLR,0.02,WeatherDisplay:10.37,2013-05-23 20:28:00,
2013-05-23 16:34:00,75.3,72.5,28.34,SSW,208,3.5,3.5,91,0.00,CLR,CLR,0.02,WeatherDisplay:10.37,2013-05-23 20:34:00,
2013-05-23 16:40:00,74.9,71.1,28.33,South,180,2.3,2.3,88,0.00,CLR,CLR,0.02,WeatherDisplay:10.37,2013-05-23 20:40:00,
2013-05-23 16:45:00,74.4,70.9,28.33,South,182,3.5,3.5,89,0.00,CLR,CLR,0.02,WeatherDisplay:10.37,2013-05-23 20:45:00,
2013-05-23 16:50:00,73.9,70.8,28.35,South,188,2.3,2.3,90,0.00,CLR,CLR,0.02,WeatherDisplay:10.37,2013-05-23 20:50:00,
2013-05-23 16:55:00,73.6,70.8,28.33,South,188,2.3,2.3,91,0.00,CLR,CLR,0.02,WeatherDisplay:10.37,2013-05-23 20:55:00,
2013-05-23 17:00:00,73.2,71.1,28.34,South,187,0.0,0.0,93,0.00,CLR,CLR,0.02,WeatherDisplay:10.37,2013-05-23 21:00:00,
2013-05-23 17:05:00,72.8,70.3,28.34,South,188,1.2,1.2,92,0.00,CLR,CLR,0.02,WeatherDisplay:10.37,2013-05-23 21:05:00,
2013-05-23 17:10:00,72.7,70.9,28.36,SSW,198,3.5,3.5,94,0.00,CLR,CLR,0.02,WeatherDisplay:10.37,2013-05-23 21:10:00,
2013-05-23 17:15:00,72.6,70.8,28.47,SW,218,3.5,3.5,94,0.00,CLR,CLR,0.02,WeatherDisplay:10.37,2013-05-23 21:15:00,
2013-05-23 17:20:00,72.7,70.9,28.40,North,0,4.6,4.6,94,0.00,CLR,CLR,0.02,WeatherDisplay:10.37,2013-05-23 21:20:00,
2013-05-23 17:26:00,72.5,70.0,28.41,NNE,16,5.8,5.8,92,0.00,CLR,CLR,0.02,WeatherDisplay:10.37,2013-05-23 21:26:00,
2013-05-23 17:31:00,72.1,69.6,28.37,NNE,17,3.5,3.5,92,0.00,CLR,CLR,0.02,WeatherDisplay:10.37,2013-05-23 21:31:00,
2013-05-23 17:36:00,71.9,69.8,28.40,NNE,13,3.5,3.5,93,0.00,CLR,CLR,0.02,WeatherDisplay:10.37,2013-05-23 21:36:00,
2013-05-23 17:41:00,71.9,70.1,28.40,NNE,13,3.5,3.5,94,0.00,CLR,CLR,0.02,WeatherDisplay:10.37,2013-05-23 21:41:00,
2013-05-23 17:46:00,71.7,69.9,28.45,NNE,15,2.3,2.3,94,0.00,CLR,CLR,0.02,WeatherDisplay:10.37,2013-05-23 21:46:00,
2013-05-23 17:52:00,71.6,69.8,28.44,NNE,15,1.2,1.2,94,0.00,CLR,CLR,0.02,WeatherDisplay:10.37,2013-05-23 21:52:00,
2013-05-23 17:57:00,71.6,69.8,28.42,NNE,15,2.3,2.3,94,0.00,CLR,CLR,0.02,WeatherDisplay:10.37,2013-05-23 21:57:00,
2013-05-23 18:02:00,71.7,70.2,28.29,NNE,15,2.3,2.3,95,0.00,CLR,CLR,0.02,WeatherDisplay:10.37,2013-05-23 22:02:00,
2013-05-23 18:07:00,71.9,70.4,28.29,NNE,14,3.5,3.5,95,0.00,CLR,CLR,0.02,WeatherDisplay:10.37,2013-05-23 22:07:00,
2013-05-23 18:12:00,72.0,70.5,28.29,NNE,15,2.3,2.3,95,0.00,CLR,CLR,0.02,WeatherDisplay:10.37,2013-05-23 22:12:00,
2013-05-23 18:18:00,72.0,70.2,28.28,NNE,15,2.3,2.3,94,0.00,CLR,CLR,0.02,WeatherDisplay:10.37,2013-05-23 22:18:00,
2013-05-23 18:23:00,72.1,70.6,28.29,NNE,15,0.0,0.0,95,0.00,CLR,CLR,0.02,WeatherDisplay:10.37,2013-05-23 22:23:00,
2013-05-23 18:28:00,72.4,70.9,28.29,NNE,15,3.5,3.5,95,0.00,CLR,CLR,0.02,WeatherDisplay:10.37,2013-05-23 22:28:00,
2013-05-23 18:33:00,72.7,71.2,28.29,NNE,15,0.0,0.0,95,0.00,CLR,CLR,0.02,WeatherDisplay:10.37,2013-05-23 22:33:00,
2013-05-23 18:39:00,72.9,71.1,28.29,NNE,19,1.2,0.0,94,0.00,CLR,CLR,0.02,WeatherDisplay:10.37,2013-05-23 22:39:00,
2013-05-23 18:44:00,72.9,71.4,28.29,NNE,19,0.0,0.0,95,0.00,CLR,CLR,0.02,WeatherDisplay:10.37,2013-05-23 22:44:00,
2013-05-23 18:49:00,72.7,71.2,28.29,NNE,19,0.0,0.0,95,0.00,CLR,CLR,0.02,WeatherDisplay:10.37,2013-05-23 22:49:00,
2013-05-23 18:54:00,72.5,71.0,28.29,NNE,19,0.0,0.0,95,0.00,CLR,CLR,0.02,WeatherDisplay:10.37,2013-05-23 22:54:00,
2013-05-23 18:59:00,72.3,71.1,28.29,NNE,19,0.0,0.0,96,0.00,CLR,CLR,0.02,WeatherDisplay:10.37,2013-05-23 22:59:00,
2013-05-23 19:05:00,72.2,71.3,28.28,NNE,19,1.2,1.2,97,0.00,CLR,CLR,0.02,WeatherDisplay:10.37,2013-05-23 23:05:00,
2013-05-23 19:10:00,72.1,71.2,28.28,NNE,18,2.3,2.3,97,0.00,CLR,CLR,0.02,WeatherDisplay:10.37,2013-05-23 23:10:00,
2013-05-23 19:15:00,71.9,71.0,28.27,SSW,207,4.6,4.6,97,0.00,CLR,CLR,0.02,WeatherDisplay:10.37,2013-05-23 23:15:00,
2013-05-23 19:20:00,71.7,71.1,28.27,SSW,206,3.5,3.5,98,0.00,CLR,CLR,0.02,WeatherDisplay:10.37,2013-05-23 23:20:00,
2013-05-23 19:26:00,71.4,70.8,28.27,SSW,206,2.3,2.3,98,0.00,CLR,CLR,0.02,WeatherDisplay:10.37,2013-05-23 23:26:00,
2013-05-23 19:31:00,71.0,70.4,28.26,SSW,206,0.0,0.0,98,0.00,CLR,CLR,0.02,WeatherDisplay:10.37,2013-05-23 23:31:00,
2013-05-23 19:36:00,70.7,70.1,28.27,SSW,205,3.0,3.0,98,0.00,CLR,CLR,0.02,WeatherDisplay:10.37,2013-05-23 23:36:00,
2013-05-23 19:41:00,70.3,70.0,28.27,SSW,205,3.5,3.5,99,0.00,CLR,CLR,0.02,WeatherDisplay:10.37,2013-05-23 23:41:00,
2013-05-23 19:46:00,70.1,70.1,28.27,SSW,192,3.5,3.5,100,0.00,CLR,CLR,0.02,WeatherDisplay:10.37,2013-05-23 23:46:00,
2013-05-23 19:52:00,69.8,69.8,28.28,SSW,193,4.6,4.6,100,0.00,CLR,CLR,0.02,WeatherDisplay:10.37,2013-05-23 23:52:00,
2013-05-23 19:57:00,69.7,69.7,28.30,WNW,295,3.5,3.5,100,0.00,CLR,CLR,0.02,WeatherDisplay:10.37,2013-05-23 23:57:00,
2013-05-23 20:02:00,69.0,67.5,28.30,NW,326,19.6,19.6,95,0.00,CLR,CLR,0.02,WeatherDisplay:10.37,2013-05-24 00:02:00,
2013-05-23 20:07:00,67.4,66.2,28.33,West,260,6.9,6.9,96,0.05,RA,RA,0.16,WeatherDisplay:10.37,2013-05-24 00:07:00,
2013-05-23 20:13:00,65.3,63.8,28.30,West,270,8.1,8.1,95,0.47,RA,RA,0.51,WeatherDisplay:10.37,2013-05-24 00:13:00,
2013-05-23 20:18:00,64.3,63.4,28.30,SSE,154,3.5,3.5,97,0.55,RA,RA,0.58,WeatherDisplay:10.37,2013-05-24 00:18:00,
2013-05-23 20:23:00,63.7,63.7,28.30,SW,228,4.6,4.6,100,0.56,RA,RA,0.58,WeatherDisplay:10.37,2013-05-24 00:23:00,
2013-05-23 20:28:00,63.2,63.2,28.29,SW,227,1.2,1.2,100,0.57,RA,RA,0.59,WeatherDisplay:10.37,2013-05-24 00:28:00,
2013-05-23 20:33:00,63.0,63.0,28.29,SSE,153,3.5,3.5,100,0.57,RA,RA,0.59,WeatherDisplay:10.37,2013-05-24 00:33:00,
2013-05-23 20:39:00,62.8,62.8,28.29,SSE,153,0.0,0.0,100,0.57,CLR,CLR,0.59,WeatherDisplay:10.37,2013-05-24 00:39:00,
2013-05-23 20:44:00,62.8,62.8,28.29,SSE,153,0.0,0.0,100,0.57,CLR,CLR,0.59,WeatherDisplay:10.37,2013-05-24 00:44:00,
2013-05-23 20:49:00,62.5,62.5,28.29,SSE,147,3.5,3.5,100,0.57,CLR,CLR,0.59,WeatherDisplay:10.37,2013-05-24 00:49:00,
2013-05-23 20:54:00,62.2,62.2,28.29,SE,143,3.5,3.5,100,0.57,CLR,CLR,0.59,WeatherDisplay:10.37,2013-05-24 00:54:00,
2013-05-23 20:59:00,61.8,61.8,28.30,NNE,14,4.6,4.6,100,0.57,CLR,CLR,0.59,WeatherDisplay:10.37,2013-05-24 00:59:00,
2013-05-23 21:04:00,61.6,61.6,28.31,North,8,2.3,0.0,100,0.57,CLR,CLR,0.59,WeatherDisplay:10.37,2013-05-24 01:04:00,
2013-05-23 21:10:00,61.6,61.6,28.31,North,8,2.3,2.3,100,0.32,CLR,CLR,0.59,WeatherDisplay:10.37,2013-05-24 01:10:00,
2013-05-23 21:15:00,61.6,61.6,28.32,North,8,0.0,0.0,100,0.04,CLR,CLR,0.59,WeatherDisplay:10.37,2013-05-24 01:15:00,
2013-05-23 21:20:00,61.7,61.7,28.32,North,8,2.3,2.3,100,0.01,CLR,CLR,0.59,WeatherDisplay:10.37,2013-05-24 01:20:00,
2013-05-23 21:25:00,61.8,61.8,28.32,North,6,3.5,3.5,100,0.01,CLR,CLR,0.59,WeatherDisplay:10.37,2013-05-24 01:25:00,
2013-05-23 21:30:00,61.8,61.8,28.32,North,6,0.0,0.0,100,0.00,CLR,CLR,0.59,WeatherDisplay:10.37,2013-05-24 01:30:00,
2013-05-23 21:35:00,61.7,61.7,28.32,North,6,1.0,1.0,100,0.00,CLR,CLR,0.59,WeatherDisplay:10.37,2013-05-24 01:35:00,
2013-05-23 21:41:00,61.6,61.6,28.33,North,6,3.5,3.5,100,0.00,CLR,CLR,0.59,WeatherDisplay:10.37,2013-05-24 01:41:00,
2013-05-23 21:46:00,61.4,61.4,28.33,North,6,2.3,2.3,100,0.00,CLR,CLR,0.59,WeatherDisplay:10.37,2013-05-24 01:46:00,
2013-05-23 21:51:00,61.3,61.3,28.33,North,6,2.3,2.3,100,0.00,CLR,CLR,0.59,WeatherDisplay:10.37,2013-05-24 01:51:00,
2013-05-23 21:56:00,61.3,61.3,28.34,North,6,2.3,2.3,100,0.00,CLR,CLR,0.59,WeatherDisplay:10.37,2013-05-24 01:56:00,
2013-05-23 22:01:00,61.2,61.2,28.34,North,6,1.2,1.2,100,0.00,CLR,CLR,0.59,WeatherDisplay:10.37,2013-05-24 02:01:00,
2013-05-23 22:07:00,61.1,61.1,28.34,North,6,1.2,1.2,100,0.00,CLR,CLR,0.59,WeatherDisplay:10.37,2013-05-24 02:07:00,
2013-05-23 22:12:00,61.2,61.2,28.34,North,6,0.0,0.0,100,0.00,CLR,CLR,0.59,WeatherDisplay:10.37,2013-05-24 02:12:00,
2013-05-23 22:17:00,61.3,61.3,28.34,SE,137,2.3,2.3,100,0.00,CLR,CLR,0.59,WeatherDisplay:10.37,2013-05-24 02:17:00,
2013-05-23 22:22:00,61.4,61.4,28.35,SE,137,2.3,2.3,100,0.00,CLR,CLR,0.59,WeatherDisplay:10.37,2013-05-24 02:22:00,
2013-05-23 22:27:00,61.5,61.5,28.35,South,171,3.5,3.5,100,0.00,CLR,CLR,0.59,WeatherDisplay:10.37,2013-05-24 02:27:00,
2013-05-23 22:32:00,61.5,61.5,28.35,SSE,164,3.5,3.5,100,0.00,CLR,CLR,0.59,WeatherDisplay:10.37,2013-05-24 02:32:00,
2013-05-23 22:37:00,61.5,61.5,28.35,SSE,164,3.5,3.5,100,0.00,CLR,CLR,0.59,WeatherDisplay:10.37,2013-05-24 02:37:00,
2013-05-23 22:43:00,61.5,61.5,28.34,SSE,164,2.3,2.3,100,0.00,CLR,CLR,0.59,WeatherDisplay:10.37,2013-05-24 02:43:00,
2013-05-23 22:48:00,61.6,61.6,28.34,SSE,164,3.5,3.5,100,0.00,CLR,CLR,0.59,WeatherDisplay:10.37,2013-05-24 02:48:00,
2013-05-23 22:53:00,61.9,61.9,28.34,SSE,165,4.0,4.0,100,0.00,CLR,CLR,0.59,WeatherDisplay:10.37,2013-05-24 02:53:00,
2013-05-23 22:58:00,62.1,62.1,28.34,SSE,165,4.6,4.6,100,0.00,CLR,CLR,0.59,WeatherDisplay:10.37,2013-05-24 02:58:00,
2013-05-23 23:03:00,62.0,62.0,28.34,SSE,164,4.6,4.6,100,0.00,CLR,CLR,0.59,WeatherDisplay:10.37,2013-05-24 03:03:00,
2013-05-23 23:08:00,61.9,61.9,28.33,SSE,161,2.3,2.3,100,0.00,CLR,CLR,0.59,WeatherDisplay:10.37,2013-05-24 03:08:00,
2013-05-23 23:13:00,61.8,61.8,28.34,SSE,162,3.5,3.5,100,0.00,CLR,CLR,0.59,WeatherDisplay:10.37,2013-05-24 03:13:00,
2013-05-23 23:18:00,61.6,61.6,28.33,SSE,162,1.2,1.2,100,0.00,CLR,CLR,0.59,WeatherDisplay:10.37,2013-05-24 03:18:00,
2013-05-23 23:24:00,61.5,61.5,28.33,SSE,162,0.0,0.0,100,0.00,CLR,CLR,0.59,WeatherDisplay:10.37,2013-05-24 03:24:00,
2013-05-23 23:29:00,61.4,61.4,28.34,SSE,168,4.0,4.0,100,0.00,CLR,CLR,0.59,WeatherDisplay:10.37,2013-05-24 03:29:00,
2013-05-23 23:34:00,61.3,61.3,28.33,WSW,249,2.3,2.3,100,0.00,CLR,CLR,0.59,WeatherDisplay:10.37,2013-05-24 03:34:00,
2013-05-23 23:39:00,61.3,61.3,28.33,WSW,249,2.3,2.3,100,0.00,CLR,CLR,0.59,WeatherDisplay:10.37,2013-05-24 03:39:00,
2013-05-23 23:44:00,61.3,61.3,28.33,WSW,249,0.0,0.0,100,0.00,CLR,CLR,0.59,WeatherDisplay:10.37,2013-05-24 03:44:00,
2013-05-23 23:49:00,61.3,61.3,28.33,WSW,249,2.3,2.3,100,0.00,CLR,CLR,0.59,WeatherDisplay:10.37,2013-05-24 03:49:00,
2013-05-23 23:54:00,61.3,61.3,28.33,SSW,213,3.5,3.5,100,0.00,CLR,CLR,0.59,WeatherDisplay:10.37,2013-05-24 03:54:00,
2013-05-23 23:59:00,61.3,61.3,28.33,SSW,213,2.3,2.3,100,0.00,CLR,CLR,0.59,WeatherDisplay:10.37,2013-05-24 03:59:00,